Time;durP1;ratioP1;P1;durP2;ratioP2;P2;SDS_P1;SDS_P2;PMS_P1;PMS_P2;Temp;Humidity;BMP_temperature;BMP_pressure;BME280_temperature;BME280_humidity;BME280_pressure;Samples;Min_cycle;Max_cycle;Signal;HPM_P1;HPM_P2
2022/07/05 00:00:17;;;;;;;7.53;4.50;;;17.80;99.90;19.30;97035.00;;;;5060827;28;20214;-57
2022/07/05 00:03:07;;;;;;;4.50;3.67;;;17.90;99.90;19.20;97042.00;;;;5064212;28;20223;-56
2022/07/05 00:05:56;;;;;;;6.00;3.20;;;17.90;99.90;19.00;97042.00;;;;5066425;28;20285;-55
2022/07/05 00:08:45;;;;;;;5.53;4.00;;;17.90;99.90;19.10;97031.00;;;;5065169;28;20577;-58
2022/07/05 00:11:34;;;;;;;8.47;3.07;;;17.80;99.90;19.30;97020.00;;;;5064021;28;20204;-57
2022/07/05 00:14:22;;;;;;;8.03;3.90;;;17.90;99.90;19.30;97007.00;;;;5059744;28;20208;-55
2022/07/05 00:17:12;;;;;;;3.67;3.07;;;17.90;99.90;19.30;97007.00;;;;5063087;28;20220;-58
2022/07/05 00:20:02;;;;;;;5.17;3.20;;;17.90;99.90;19.30;97015.00;;;;5062346;28;20195;-55
2022/07/05 00:22:51;;;;;;;5.47;4.63;;;17.90;99.90;19.30;97014.00;;;;5055930;28;20208;-58
2022/07/05 00:25:40;;;;;;;5.67;3.37;;;17.90;99.90;19.40;97002.00;;;;5063969;28;20238;-57
2022/07/05 00:28:29;;;;;;;6.60;3.53;;;17.90;99.90;19.20;97005.00;;;;5060235;28;20215;-58
2022/07/05 00:31:17;;;;;;;5.23;4.10;;;17.90;99.90;19.20;97009.00;;;;5069867;28;20748;-58
2022/07/05 00:34:06;;;;;;;4.90;3.93;;;17.90;99.90;19.30;97007.00;;;;5053125;28;20208;-58
2022/07/05 00:36:56;;;;;;;3.70;2.80;;;17.90;99.90;19.20;97005.00;;;;5052574;28;20224;-58
2022/07/05 00:39:45;;;;;;;4.50;2.97;;;17.90;99.90;19.20;97011.00;;;;5058976;28;20224;-58
2022/07/05 00:42:34;;;;;;;4.23;3.30;;;17.90;99.90;19.10;97018.00;;;;5055840;28;20209;-58
2022/07/05 00:45:23;;;;;;;3.97;3.17;;;17.90;99.90;19.00;97021.00;;;;5052862;28;20296;-58
2022/07/05 00:48:12;;;;;;;6.40;4.20;;;17.80;99.90;19.10;97019.00;;;;5061635;28;20196;-55
2022/07/05 00:51:00;;;;;;;5.20;4.60;;;17.80;99.90;19.20;97002.00;;;;5061437;28;20204;-58
2022/07/05 00:53:51;;;;;;;6.27;4.00;;;17.80;99.90;19.20;97001.00;;;;5061812;28;20676;-57
2022/07/05 00:56:40;;;;;;;4.07;3.37;;;17.80;99.90;19.10;97001.00;;;;5053308;28;20227;-56
2022/07/05 00:59:30;;;;;;;4.30;4.00;;;17.90;99.90;19.00;97008.00;;;;5057591;28;20192;-57
2022/07/05 01:02:22;;;;;;;4.33;3.87;;;17.80;99.90;19.10;97001.00;;;;5055297;28;20200;-59
2022/07/05 01:05:11;;;;;;;3.70;3.33;;;17.80;99.90;19.20;97006.00;;;;5063743;28;20227;-58
2022/07/05 01:08:01;;;;;;;3.70;3.40;;;17.90;99.90;19.10;97009.00;;;;5068167;28;20213;-58
2022/07/05 01:10:53;;;;;;;4.93;3.90;;;17.90;99.90;19.10;97000.00;;;;5058984;28;20203;-58
2022/07/05 01:13:42;;;;;;;5.93;4.53;;;17.80;99.90;19.10;97015.00;;;;5066150;28;20200;-58
2022/07/05 01:16:31;;;;;;;5.00;4.23;;;17.80;99.90;18.80;97023.00;;;;5062196;28;20220;-59
2022/07/05 01:19:21;;;;;;;6.90;4.83;;;17.70;99.90;18.90;97022.00;;;;5059414;28;20583;-59
2022/07/05 01:22:19;;;;;;;5.43;4.57;;;17.70;99.90;18.90;97008.00;;;;5063854;28;20609;-57
2022/07/05 01:25:09;;;;;;;4.33;3.93;;;17.70;99.90;19.00;97009.00;;;;5059336;28;20223;-59
2022/07/05 01:28:01;;;;;;;6.53;4.73;;;17.70;99.90;19.10;97008.00;;;;5063791;28;20212;-59
2022/07/05 01:30:50;;;;;;;4.37;3.97;;;17.70;99.90;19.10;97012.00;;;;5056555;28;20219;-58
2022/07/05 01:33:38;;;;;;;4.23;3.70;;;17.70;99.90;19.10;97015.00;;;;5066456;28;20202;-58
2022/07/05 01:36:27;;;;;;;6.30;3.50;;;17.80;99.90;19.10;97012.00;;;;5062361;28;20749;-57
2022/07/05 01:39:17;;;;;;;4.70;3.80;;;17.80;99.90;19.20;97008.00;;;;5062191;28;20199;-58
2022/07/05 01:42:08;;;;;;;5.13;4.73;;;17.80;99.90;19.20;97016.00;;;;5066916;28;20200;-62
2022/07/05 01:44:57;;;;;;;6.90;4.07;;;17.80;99.90;19.30;97007.00;;;;5067051;28;20219;-59
2022/07/05 01:47:48;;;;;;;6.57;3.73;;;17.90;99.90;19.20;96993.00;;;;5052998;28;20197;-59
2022/07/05 01:50:41;;;;;;;4.60;3.93;;;17.90;99.90;19.20;96998.00;;;;5056425;28;20203;-58
2022/07/05 01:53:32;;;;;;;4.33;3.87;;;17.80;99.90;19.20;96988.00;;;;5065948;28;20223;-59
2022/07/05 01:56:21;;;;;;;6.87;4.17;;;17.80;99.90;19.10;96985.00;;;;5057133;28;20247;-58
2022/07/05 01:59:13;;;;;;;4.37;3.97;;;17.80;99.90;19.10;96974.00;;;;5057474;28;20208;-57
2022/07/05 02:02:03;;;;;;;4.47;4.13;;;17.80;99.90;19.10;96966.00;;;;5063121;28;20208;-58
2022/07/05 02:04:52;;;;;;;5.43;4.17;;;17.80;99.90;19.10;96962.00;;;;5063203;28;20223;-58
2022/07/05 02:07:48;;;;;;;6.47;4.27;;;17.80;99.90;19.20;96960.00;;;;5068019;28;20195;-59
2022/07/05 02:10:37;;;;;;;5.90;4.53;;;17.90;99.90;19.20;96949.00;;;;5067407;28;20207;-59
2022/07/05 02:13:26;;;;;;;4.47;3.83;;;17.80;99.90;19.00;96927.00;;;;5067602;28;20193;-58
2022/07/05 02:16:16;;;;;;;4.57;4.17;;;17.80;99.90;19.10;96925.00;;;;5065705;28;20223;-58
2022/07/05 02:19:05;;;;;;;4.97;4.07;;;17.80;99.90;19.20;96914.00;;;;5053850;28;20211;-57
2022/07/05 02:21:54;;;;;;;4.80;3.97;;;17.90;99.90;19.30;96905.00;;;;5058649;28;20211;-58
2022/07/05 02:24:43;;;;;;;5.63;4.30;;;17.90;99.90;19.10;96912.00;;;;5057290;28;20223;-58
2022/07/05 02:27:32;;;;;;;6.40;4.47;;;17.90;99.90;19.00;96905.00;;;;5063800;28;20239;-58
2022/07/05 02:30:21;;;;;;;7.53;5.67;;;17.90;99.90;18.90;96908.00;;;;5059514;28;20211;-57
2022/07/05 02:33:11;;;;;;;5.43;4.63;;;17.80;99.90;18.90;96912.00;;;;5050779;28;20215;-57
2022/07/05 02:36:08;;;;;;;6.43;5.67;;;17.80;99.90;19.00;96912.00;;;;5061070;28;20232;-58
2022/07/05 02:38:57;;;;;;;6.43;4.83;;;19.10;99.90;18.90;96917.00;;;;5062460;28;20204;-58
2022/07/05 02:41:46;;;;;;;6.40;4.17;;;17.70;99.90;18.90;96906.00;;;;5053190;28;20679;-58
2022/07/05 02:44:35;;;;;;;5.07;4.57;;;17.70;99.90;19.00;96895.00;;;;5055438;28;20212;-58
2022/07/05 02:47:23;;;;;;;10.37;5.73;;;17.70;99.90;18.90;96902.00;;;;5064266;28;20577;-57
2022/07/05 02:50:13;;;;;;;4.70;4.30;;;17.70;99.90;18.80;96893.00;;;;5050294;28;20205;-56
2022/07/05 02:53:02;;;;;;;4.80;4.33;;;17.70;99.90;18.80;96882.00;;;;5057255;28;20698;-59
2022/07/05 02:55:51;;;;;;;10.57;5.33;;;17.60;99.90;18.90;96883.00;;;;5056184;28;20227;-58
2022/07/05 02:58:40;;;;;;;6.10;4.17;;;17.60;99.90;18.90;96882.00;;;;5059136;28;20199;-58
2022/07/05 03:01:29;;;;;;;5.67;4.83;;;17.70;99.90;18.90;96883.00;;;;5060292;28;20208;-58
2022/07/05 03:04:18;;;;;;;9.43;6.10;;;17.70;99.90;18.60;96881.00;;;;5054463;28;20200;-58
2022/07/05 03:07:09;;;;;;;4.53;4.00;;;17.60;99.90;18.70;96878.00;;;;5056990;28;20226;-58
2022/07/05 03:09:57;;;;;;;8.03;5.10;;;17.60;99.90;18.30;96879.00;;;;5064666;28;20201;-58
2022/07/05 03:12:46;;;;;;;4.27;3.87;;;17.50;99.90;18.60;96886.00;;;;5056145;28;20231;-58
2022/07/05 03:15:35;;;;;;;4.73;4.23;;;17.50;99.90;18.70;96887.00;;;;5059407;28;20203;-58
2022/07/05 03:18:24;;;;;;;3.70;3.37;;;17.50;99.90;18.70;96887.00;;;;5055214;28;20748;-59
2022/07/05 03:21:13;;;;;;;5.63;4.57;;;17.50;99.90;18.70;96895.00;;;;5063832;28;20245;-59
2022/07/05 03:24:03;;;;;;;4.20;3.87;;;17.50;99.90;18.80;96896.00;;;;5048779;28;20207;-58
2022/07/05 03:26:52;;;;;;;3.83;3.43;;;17.50;99.90;18.90;96907.00;;;;5063334;28;20790;-58
2022/07/05 03:29:41;;;;;;;5.60;3.57;;;17.50;99.90;19.00;96903.00;;;;5064610;28;20227;-57
2022/07/05 03:32:30;;;;;;;4.30;3.57;;;17.60;99.90;19.00;96903.00;;;;5051706;28;20207;-59
2022/07/05 03:35:19;;;;;;;4.53;3.47;;;17.40;99.90;19.00;96912.00;;;;5064291;28;20581;-58
2022/07/05 03:38:07;;;;;;;10.97;4.60;;;17.60;99.90;19.00;96919.00;;;;5057876;28;20203;-59
2022/07/05 03:40:57;;;;;;;4.30;4.00;;;17.70;99.90;19.10;96923.00;;;;5064802;28;20292;-59
2022/07/05 03:43:46;;;;;;;7.47;4.97;;;17.70;99.90;18.90;96925.00;;;;5065449;28;20208;-58
2022/07/05 03:46:35;;;;;;;4.60;3.93;;;17.60;99.90;18.90;96933.00;;;;5058903;28;20241;-59
2022/07/05 03:49:24;;;;;;;4.60;4.20;;;17.70;99.90;19.00;96931.00;;;;5055233;28;20200;-59
2022/07/05 03:52:12;;;;;;;5.67;5.17;;;17.70;99.90;19.00;96940.00;;;;5052383;28;20205;-61
2022/07/05 03:55:01;;;;;;;4.50;4.10;;;17.70;99.90;19.10;96942.00;;;;5062242;28;20700;-60
2022/07/05 03:57:53;;;;;;;4.27;3.83;;;17.70;99.90;19.10;96946.00;;;;5055034;28;20258;-61
2022/07/05 04:00:41;;;;;;;4.57;4.17;;;17.70;99.90;19.10;96959.00;;;;5049398;28;20201;-60
2022/07/05 04:03:30;;;;;;;4.20;3.73;;;17.70;99.90;19.20;96960.00;;;;5058306;28;20207;-61
2022/07/05 04:06:19;;;;;;;4.57;4.07;;;17.80;99.90;19.20;96948.00;;;;5058177;28;20229;-61
2022/07/05 04:09:08;;;;;;;5.60;4.27;;;17.80;99.90;19.20;96950.00;;;;5050207;28;20200;-61
2022/07/05 04:11:56;;;;;;;4.37;3.97;;;17.80;99.90;19.10;96959.00;;;;5053778;28;20222;-60
2022/07/05 04:14:46;;;;;;;5.37;4.30;;;17.80;99.90;18.90;96964.00;;;;5069167;28;20238;-61
2022/07/05 04:17:35;;;;;;;4.93;4.53;;;17.80;99.90;18.80;96957.00;;;;5066853;28;20232;-61
2022/07/05 04:20:25;;;;;;;7.37;4.43;;;17.70;99.90;18.90;96958.00;;;;5069929;28;20571;-60
2022/07/05 04:23:13;;;;;;;5.13;4.13;;;17.70;99.90;19.00;96965.00;;;;5064395;28;20192;-61
2022/07/05 04:26:03;;;;;;;4.67;4.23;;;17.70;99.90;18.90;96958.00;;;;5068884;28;20255;-60
2022/07/05 04:28:51;;;;;;;5.53;4.23;;;17.70;99.90;18.80;96959.00;;;;5070782;28;20257;-61
2022/07/05 04:31:45;;;;;;;12.30;4.17;;;17.70;99.90;18.70;96965.00;;;;5064477;28;20271;-59
2022/07/05 04:34:34;;;;;;;5.00;4.50;;;17.60;99.90;18.60;96959.00;;;;5068777;28;20207;-59
2022/07/05 04:37:23;;;;;;;5.07;4.57;;;17.60;99.90;18.60;96954.00;;;;5071090;28;20239;-61
2022/07/05 04:40:14;;;;;;;5.47;4.97;;;17.60;99.90;18.90;96961.00;;;;5063841;28;20200;-60
2022/07/05 04:43:03;;;;;;;7.10;4.53;;;17.60;99.90;19.00;96954.00;;;;5068458;28;20204;-60
2022/07/05 04:45:52;;;;;;;4.70;4.30;;;17.70;99.90;19.20;96952.00;;;;5069487;28;20224;-61
2022/07/05 04:48:45;;;;;;;5.87;4.63;;;17.70;99.90;19.30;96949.00;;;;5068132;28;20332;-61
2022/07/05 04:51:34;;;;;;;5.13;4.43;;;17.80;99.90;18.90;96957.00;;;;5066773;28;20227;-60
2022/07/05 04:54:23;;;;;;;5.93;3.80;;;17.70;99.90;19.20;96958.00;;;;5072884;28;20203;-60
2022/07/05 04:57:11;;;;;;;5.23;4.47;;;17.80;99.90;19.30;96950.00;;;;5080849;28;20239;-60
2022/07/05 05:00:00;;;;;;;5.23;4.20;;;17.80;99.90;19.50;96950.00;;;;5059472;28;20216;-60
2022/07/05 05:02:49;;;;;;;5.07;4.20;;;17.90;99.90;19.30;96951.00;;;;5064962;28;20702;-60
2022/07/05 05:05:39;;;;;;;4.67;4.13;;;17.90;99.90;19.50;96951.00;;;;5063639;28;20224;-61
2022/07/05 05:08:28;;;;;;;4.00;3.67;;;18.00;99.90;19.50;96962.00;;;;5066502;28;20574;-60
2022/07/05 05:11:17;;;;;;;3.73;3.43;;;18.10;99.90;19.60;96960.00;;;;5064197;28;20203;-60
2022/07/05 05:14:05;;;;;;;5.73;4.17;;;18.20;99.90;19.50;96961.00;;;;5069649;28;20205;-61
2022/07/05 05:16:54;;;;;;;5.90;4.43;;;18.20;99.90;19.30;96955.00;;;;5067767;28;20242;-61
2022/07/05 05:19:44;;;;;;;4.03;3.73;;;18.10;99.90;19.60;96958.00;;;;5065548;28;20192;-61
2022/07/05 05:22:34;;;;;;;6.17;4.27;;;18.10;99.90;19.80;96953.00;;;;5067689;28;20238;-60
2022/07/05 05:25:23;;;;;;;5.37;4.30;;;18.30;99.90;20.00;96953.00;;;;5063644;28;20200;-60
2022/07/05 05:28:11;;;;;;;5.33;4.83;;;18.30;99.90;20.10;96955.00;;;;5074062;28;20227;-62
2022/07/05 05:31:00;;;;;;;5.33;4.83;;;18.40;99.90;20.10;96956.00;;;;5067274;28;20223;-60
2022/07/05 05:33:49;;;;;;;4.13;3.73;;;18.50;99.90;20.20;96954.00;;;;5067440;28;20207;-61
2022/07/05 05:36:38;;;;;;;4.07;3.57;;;18.50;99.90;20.10;96952.00;;;;5079110;28;20220;-61
2022/07/05 05:39:28;;;;;;;4.23;3.90;;;18.60;99.90;19.90;96952.00;;;;5075155;28;20199;-61
2022/07/05 05:42:17;;;;;;;4.13;3.73;;;18.60;99.90;20.00;96949.00;;;;5065952;28;20211;-59
2022/07/05 05:45:08;;;;;;;8.10;4.00;;;18.60;99.90;20.10;96953.00;;;;5071008;28;20227;-56
2022/07/05 05:47:58;;;;;;;4.20;3.83;;;18.60;99.90;20.10;96955.00;;;;5074791;28;20228;-58
2022/07/05 05:50:48;;;;;;;6.07;4.03;;;18.60;99.90;20.20;96951.00;;;;5072728;28;20195;-58
2022/07/05 05:53:37;;;;;;;4.83;4.43;;;18.70;99.90;20.20;96959.00;;;;5074369;28;20206;-59
2022/07/05 05:56:27;;;;;;;5.77;3.80;;;18.70;99.90;20.10;96948.00;;;;5064706;28;20220;-59
2022/07/05 05:59:16;;;;;;;6.10;3.70;;;18.70;99.90;19.90;96955.00;;;;5063817;28;20675;-59
2022/07/05 06:02:05;;;;;;;6.80;4.40;;;18.70;99.90;19.90;96954.00;;;;5067585;28;20243;-58
2022/07/05 06:04:54;;;;;;;4.53;4.13;;;18.60;99.90;20.10;96960.00;;;;5068509;28;20894;-58
2022/07/05 06:07:48;;;;;;;4.30;3.90;;;18.60;99.90;20.00;96964.00;;;;5077679;28;20219;-59
2022/07/05 06:10:38;;;;;;;7.23;4.43;;;18.70;99.90;20.20;96950.00;;;;5071783;28;20201;-59
2022/07/05 06:13:28;;;;;;;7.63;4.73;;;18.70;99.90;20.40;96956.00;;;;5072654;28;20211;-59
2022/07/05 06:16:17;;;;;;;6.43;4.07;;;18.80;99.90;20.40;96957.00;;;;5068244;28;20223;-58
2022/07/05 06:19:06;;;;;;;5.53;5.03;;;18.80;99.90;20.50;96960.00;;;;5063564;28;20207;-59
2022/07/05 06:21:54;;;;;;;5.67;5.13;;;18.90;99.90;20.60;96957.00;;;;5052149;28;20674;-59
2022/07/05 06:24:47;;;;;;;5.67;4.73;;;19.00;99.90;20.50;96964.00;;;;5058698;28;20622;-59
2022/07/05 06:27:46;;;;;;;5.17;4.77;;;19.00;99.90;20.50;96966.00;;;;5057919;28;20739;-58
2022/07/05 06:30:38;;;;;;;6.43;4.90;;;19.00;99.90;20.60;96961.00;;;;5061130;28;20203;-58
2022/07/05 06:33:27;;;;;;;4.80;4.40;;;19.10;99.90;20.70;96964.00;;;;5063438;28;20200;-58
2022/07/05 06:36:16;;;;;;;5.63;5.13;;;19.10;99.90;20.70;96965.00;;;;5063959;28;20235;-59
2022/07/05 06:39:05;;;;;;;5.80;5.20;;;19.20;99.90;20.70;96965.00;;;;5059507;28;20972;-59
2022/07/05 06:41:54;;;;;;;7.30;5.57;;;19.30;99.90;20.40;96972.00;;;;5064089;28;20200;-59
2022/07/05 06:44:43;;;;;;;7.63;4.60;;;19.20;99.90;20.60;96964.00;;;;5062743;28;20581;-59
2022/07/05 06:47:34;;;;;;;5.23;4.73;;;19.20;99.90;21.10;96968.00;;;;5064684;28;20263;-59
2022/07/05 06:50:22;;;;;;;5.63;4.90;;;19.30;99.90;21.30;96964.00;;;;5060989;28;20204;-59
2022/07/05 06:53:12;;;;;;;6.03;5.43;;;19.50;99.90;21.50;96959.00;;;;5065408;28;20926;-59
2022/07/05 06:56:01;;;;;;;5.40;4.87;;;19.70;99.90;21.60;96966.00;;;;5048618;28;20229;-59
2022/07/05 06:58:50;;;;;;;5.20;4.80;;;19.80;99.90;21.10;96957.00;;;;5052441;28;20214;-59
2022/07/05 07:01:55;;;;;;;4.87;4.47;;;19.80;99.90;21.00;96952.00;;;;5066817;28;20206;-59
2022/07/05 07:05:07;;;;;;;4.83;4.43;;;19.80;99.90;21.10;96957.00;;;;5068160;28;20313;-59
2022/07/05 07:11:03;;;;;;;5.33;4.77;;;19.80;99.90;21.20;96950.00;;;;5062248;28;20200;-59
2022/07/05 07:13:51;;;;;;;5.30;4.80;;;19.80;99.90;21.60;96949.00;;;;5061202;28;20219;-59
2022/07/05 07:16:40;;;;;;;5.10;4.60;;;19.90;99.90;21.80;96948.00;;;;5048963;28;20854;-59
2022/07/05 07:19:29;;;;;;;6.33;4.50;;;20.00;99.90;22.00;96949.00;;;;5050402;28;20200;-59
2022/07/05 07:22:19;;;;;;;5.17;4.67;;;20.20;99.90;22.20;96958.00;;;;5067714;28;20675;-59
2022/07/05 07:25:11;;;;;;;8.20;5.63;;;20.30;99.90;22.20;96955.00;;;;5068730;28;20199;-59
2022/07/05 07:28:00;;;;;;;4.40;3.93;;;20.40;99.90;22.40;96956.00;;;;5056982;28;20230;-59
2022/07/05 07:30:49;;;;;;;5.77;4.30;;;20.50;99.90;22.40;96956.00;;;;5072235;28;20207;-59
2022/07/05 07:33:38;;;;;;;4.73;3.40;;;20.70;99.90;22.30;96956.00;;;;5067877;28;20672;-61
2022/07/05 07:36:31;;;;;;;9.27;4.03;;;20.70;99.90;22.60;96950.00;;;;5060754;28;21050;-59
2022/07/05 07:39:22;;;;;;;4.27;3.63;;;20.70;99.90;22.50;96953.00;;;;5053891;28;20223;-59
2022/07/05 07:42:10;;;;;;;4.10;3.53;;;20.80;99.90;22.70;96947.00;;;;5055422;28;20211;-59
2022/07/05 07:44:59;;;;;;;5.87;3.60;;;20.90;99.90;22.40;96949.00;;;;5055333;28;20227;-59
2022/07/05 07:47:47;;;;;;;4.13;3.73;;;20.90;99.90;22.70;96954.00;;;;5056392;28;20228;-59
2022/07/05 07:50:36;;;;;;;4.20;3.77;;;21.00;99.90;22.70;96953.00;;;;5054089;28;20203;-60
2022/07/05 07:53:25;;;;;;;3.17;2.90;;;21.00;99.90;23.00;96952.00;;;;5053364;28;20695;-59
2022/07/05 07:56:15;;;;;;;3.07;2.67;;;21.10;99.90;22.70;96955.00;;;;5055257;28;20220;-59
2022/07/05 07:59:04;;;;;;;3.10;2.50;;;21.20;99.90;22.70;96958.00;;;;5059848;28;20199;-59
2022/07/05 08:01:53;;;;;;;3.00;2.77;;;21.20;99.90;22.50;96953.00;;;;5074528;28;20200;-61
2022/07/05 08:04:42;;;;;;;3.13;2.90;;;21.20;99.90;22.90;96969.00;;;;5075030;28;20763;-59
2022/07/05 08:07:31;;;;;;;2.43;2.23;;;21.20;99.90;22.80;96965.00;;;;5072070;28;20224;-59
2022/07/05 08:10:20;;;;;;;3.53;3.10;;;21.20;99.90;23.20;96958.00;;;;5066913;28;20213;-60
2022/07/05 08:13:10;;;;;;;4.87;2.33;;;21.30;99.90;23.30;96963.00;;;;5055926;28;20195;-59
2022/07/05 08:16:00;;;;;;;2.53;2.33;;;21.40;99.90;23.40;96970.00;;;;5075368;22;20236;-90
2022/07/05 08:21:55;;;;;;;1.97;1.87;;;;;23.40;96962.00;;;;5065850;28;20239;-91
2022/07/05 08:24:44;;;;;;;2.57;1.90;;;;;23.60;96970.00;;;;5065353;28;20231;-93
2022/07/05 08:27:33;;;;;;;1.77;1.67;;;;;23.40;96968.00;;;;5067279;28;20197;-92
2022/07/05 08:30:24;;;;;;;1.77;1.67;;;21.70;99.90;23.50;96970.00;;;;5062989;28;20208;-91
2022/07/05 08:33:13;;;;;;;3.20;2.27;;;21.70;99.90;23.60;96969.00;;;;5063374;28;20224;-93
2022/07/05 08:36:02;;;;;;;2.57;2.37;;;;;23.50;96973.00;;;;5063364;28;20543;-91
2022/07/05 08:38:51;;;;;;;1.80;1.70;;;21.80;99.90;23.40;96969.00;;;;5057257;28;20286;-92
2022/07/05 08:41:43;;;;;;;1.97;1.50;;;21.70;99.90;23.20;96970.00;;;;5062398;28;20220;-93
2022/07/05 08:44:38;;;;;;;1.70;1.60;;;21.60;99.90;23.10;96968.00;;;;5063344;28;20673;-92
2022/07/05 08:47:29;;;;;;;1.60;1.50;;;21.60;99.90;23.40;96974.00;;;;5057121;28;20200;-91
2022/07/05 08:50:19;;;;;;;1.47;1.37;;;;;23.20;96973.00;;;;5060903;28;20201;-92
2022/07/05 08:53:08;;;;;;;1.73;1.60;;;;;23.80;96969.00;;;;5055718;28;20224;-91
2022/07/05 08:55:58;;;;;;;1.53;1.43;;;;;24.10;96970.00;;;;5058431;28;20204;-90
2022/07/05 08:58:49;;;;;;;1.87;1.20;;;;;24.50;96980.00;;;;5064978;28;20200;-90
2022/07/05 09:01:40;;;;;;;1.40;1.30;;;22.10;99.90;24.80;96968.00;;;;5058965;28;20205;-91
2022/07/05 09:04:38;;;;;;;3.07;1.63;;;22.60;99.90;24.90;96976.00;;;;5048457;28;20284;-91
2022/07/05 09:07:30;;;;;;;1.40;1.30;;;22.70;99.90;24.20;96975.00;;;;5056960;28;20197;-92
2022/07/05 09:10:23;;;;;;;3.13;1.40;;;22.70;99.90;24.10;96977.00;;;;5067419;28;20234;-92
2022/07/05 09:13:12;;;;;;;1.40;1.30;;;;;24.00;96978.00;;;;5065816;28;20228;-92
2022/07/05 09:16:01;;;;;;;1.30;1.20;;;22.60;99.90;24.50;96979.00;;;;5054917;28;20486;-91
2022/07/05 09:18:56;;;;;;;1.80;1.70;;;22.60;99.90;24.70;96972.00;;;;5055468;28;20275;-90
2022/07/05 09:21:47;;;;;;;2.40;1.50;;;22.90;99.90;24.70;96968.00;;;;5047739;28;20225;-92
2022/07/05 09:24:45;;;;;;;1.37;1.20;;;22.80;99.90;25.70;96948.00;;;;5069889;28;20209;-91
2022/07/05 09:27:35;;;;;;;1.10;1.00;;;;;26.50;96955.00;;;;5070338;28;20193;-90
2022/07/05 09:30:32;;;;;;;1.33;1.23;;;23.60;99.90;26.80;96949.00;;;;5070610;28;20196;-92
2022/07/05 09:33:20;;;;;;;1.10;0.90;;;;;27.20;96952.00;;;;5060877;28;20247;-92
2022/07/05 09:36:10;;;;;;;1.00;1.00;;;24.40;99.90;27.00;96951.00;;;;5073284;28;20216;-90
2022/07/05 09:39:00;;;;;;;1.20;0.97;;;24.60;99.90;26.40;96973.00;;;;5068020;28;20209;-92
2022/07/05 09:41:49;;;;;;;1.07;0.90;;;;;26.20;96955.00;;;;5064498;28;20219;-92
2022/07/05 09:44:39;;;;;;;0.60;0.50;;;24.70;99.90;27.10;96956.00;;;;5064541;28;20185;-92
2022/07/05 09:47:29;;;;;;;0.70;0.70;;;24.90;99.90;28.00;96946.00;;;;5076689;28;20217;-92
2022/07/05 09:50:36;;;;;;;0.50;0.50;;;25.10;99.90;27.80;96984.00;;;;5075658;28;20227;-93
2022/07/05 09:53:47;;;;;;;1.30;0.70;;;25.30;99.90;27.20;96984.00;;;;5071273;28;20200;-92
2022/07/05 09:56:47;;;;;;;0.70;0.60;;;24.70;99.90;26.00;96982.00;;;;5062292;28;20204;-90
2022/07/05 09:59:36;;;;;;;2.30;0.70;;;25.00;99.90;26.10;96932.00;;;;5055482;28;20214;-90
2022/07/05 10:02:39;;;;;;;0.90;0.80;;;24.80;99.90;26.80;96980.00;;;;5043972;28;20215;-88
2022/07/05 10:05:30;;;;;;;0.70;0.70;;;24.80;99.90;25.90;96966.00;;;;5039230;28;20893;-89
2022/07/05 10:08:21;;;;;;;1.53;0.73;;;24.40;99.90;25.00;96952.00;;;;5049501;28;20198;-89
2022/07/05 10:11:11;;;;;;;0.83;0.50;;;;;24.80;96960.00;;;;5042683;28;20202;-90
2022/07/05 10:14:05;;;;;;;0.60;0.60;;;24.20;99.90;24.60;96954.00;;;;5043809;28;20200;-91
2022/07/05 10:17:01;;;;;;;0.73;0.50;;;23.90;99.90;24.70;96927.00;;;;5039741;28;20209;-90
2022/07/05 10:19:52;;;;;;;2.37;0.60;;;23.70;99.90;25.90;96909.00;;;;5043786;28;20210;-90
2022/07/05 10:22:42;;;;;;;1.03;0.63;;;24.10;99.90;26.90;96948.00;;;;5049282;28;20235;-90
2022/07/05 10:25:31;;;;;;;0.50;0.47;;;24.50;99.90;26.00;96956.00;;;;5051055;28;20199;-90
2022/07/05 10:28:21;;;;;;;0.80;0.40;;;24.50;99.90;26.40;96935.00;;;;5030100;28;20205;-90
2022/07/05 10:31:14;;;;;;;0.50;0.50;;;24.70;99.90;26.80;96938.00;;;;5050117;28;20203;-91
2022/07/05 10:34:08;;;;;;;0.60;0.30;;;24.70;99.90;26.10;96964.00;;;;5031716;28;20675;-90
2022/07/05 10:37:05;;;;;;;0.40;0.40;;;24.70;99.90;25.70;96971.00;;;;5039962;28;20286;-91
2022/07/05 10:39:55;;;;;;;0.50;0.43;;;24.70;99.90;26.30;96962.00;;;;5039482;28;20751;-88
2022/07/05 10:42:48;;;;;;;0.47;0.47;;;24.60;99.90;27.00;96968.00;;;;5045741;28;20705;-90
2022/07/05 10:45:40;;;;;;;0.43;0.43;;;24.60;99.90;26.90;96970.00;;;;5052667;28;20206;-89
2022/07/05 10:48:31;;;;;;;0.50;0.50;;;24.80;99.90;26.90;96974.00;;;;5051623;28;20203;-90
2022/07/05 10:51:20;;;;;;;0.70;0.40;;;24.80;99.90;27.00;96970.00;;;;5051499;28;20211;-89
2022/07/05 10:54:09;;;;;;;0.50;0.40;;;24.80;99.90;26.80;96973.00;;;;5039821;28;20215;-90
2022/07/05 10:57:24;;;;;;;0.60;0.40;;;24.90;99.90;27.40;96972.00;;;;5050696;28;20208;-90
2022/07/05 11:00:14;;;;;;;0.40;0.30;;;25.20;99.90;26.20;96970.00;;;;5044075;28;20197;-90
2022/07/05 11:03:09;;;;;;;0.40;0.30;;;25.20;99.90;26.50;96936.00;;;;5043264;28;21028;-90
2022/07/05 11:06:00;;;;;;;1.83;0.50;;;25.10;99.90;26.30;96968.00;;;;5043270;28;20199;-90
2022/07/05 11:09:18;;;;;;;0.40;0.37;;;25.00;99.90;26.40;96962.00;;;;5037769;28;20206;-90
2022/07/05 11:12:10;;;;;;;0.30;0.30;;;24.90;99.90;26.20;96969.00;;;;5044197;28;20221;-90
2022/07/05 11:15:18;;;;;;;0.67;0.50;;;24.80;99.90;26.30;96979.00;;;;5042438;28;20719;-90
2022/07/05 11:18:17;;;;;;;0.60;0.30;;;24.60;99.90;26.40;96983.00;;;;5050278;28;20443;-89
2022/07/05 11:21:20;;;;;;;0.40;0.40;;;24.60;99.90;27.60;96910.00;;;;5045318;28;20203;-89
2022/07/05 11:24:23;;;;;;;0.30;0.30;;;25.00;99.90;29.40;96951.00;;;;5046878;28;20247;-91
2022/07/05 11:27:13;;;;;;;0.87;0.20;;;25.70;99.90;28.10;96971.00;;;;5053031;28;20208;-89
2022/07/05 11:30:02;;;;;;;0.67;0.50;;;25.90;99.90;28.60;96983.00;;;;5041928;28;20858;-90
2022/07/05 11:32:51;;;;;;;0.60;0.50;;;26.20;99.90;27.50;96956.00;;;;5050758;28;20217;-89
2022/07/05 11:35:43;;;;;;;0.53;0.53;;;26.00;99.90;28.50;96977.00;;;;5032695;28;20206;-89
2022/07/05 11:38:34;;;;;;;0.90;0.50;;;26.00;99.90;28.60;96941.00;;;;5053930;28;20202;-89
2022/07/05 11:41:45;;;;;;;1.47;0.40;;;26.20;99.90;28.70;96911.00;;;;5043005;28;20235;-89
2022/07/05 11:44:35;;;;;;;0.67;0.40;;;26.40;99.90;28.90;96967.00;;;;5045853;28;20560;-89
2022/07/05 11:47:40;;;;;;;0.33;0.30;;;26.70;99.90;28.40;96898.00;;;;5047930;28;20208;-89
2022/07/05 11:50:33;;;;;;;2.07;0.77;;;26.60;99.90;29.70;96894.00;;;;5052534;28;20700;-90
2022/07/05 11:53:29;;;;;;;0.73;0.60;;;27.00;99.90;29.30;96941.00;;;;5053667;28;20235;-89
2022/07/05 11:56:40;;;;;;;0.60;0.33;;;27.10;99.90;28.40;96875.00;;;;5048403;28;20219;-88
2022/07/05 11:59:30;;;;;;;0.50;0.50;;;27.00;99.90;28.90;96877.00;;;;5048421;28;20206;-90
2022/07/05 12:02:19;;;;;;;0.40;0.40;;;27.20;99.90;29.30;96939.00;;;;5056729;28;20261;-91
2022/07/05 12:05:08;;;;;;;1.43;0.50;;;27.10;99.20;29.50;96867.00;;;;5051910;28;20653;-90
2022/07/05 12:07:58;;;;;;;1.30;0.60;;;;;29.00;96877.00;;;;5049900;28;20201;-90
2022/07/05 12:13:58;;;;;;;0.80;0.40;;;27.70;96.20;28.40;96871.00;;;;5059368;28;20193;-91
2022/07/05 12:16:47;;;;;;;0.83;0.70;;;27.40;93.30;28.70;96897.00;;;;5044254;28;20221;-89
2022/07/05 12:19:36;;;;;;;0.40;0.40;;;;;28.90;96868.00;;;;5050558;28;20215;-90
2022/07/05 12:22:32;;;;;;;0.30;0.30;;;27.10;93.50;30.00;96944.00;;;;5043111;28;20236;-89
2022/07/05 12:25:23;;;;;;;0.30;0.30;;;27.30;92.20;29.00;96926.00;;;;5054133;28;20204;-91
2022/07/05 12:28:14;;;;;;;0.30;0.30;;;;;30.00;96936.00;;;;5047257;28;20206;-89
2022/07/05 12:31:17;;;;;;;0.50;0.50;;;27.30;95.70;29.90;96945.00;;;;5055191;28;20237;-91
2022/07/05 12:34:21;;;;;;;2.20;0.67;;;27.80;93.90;29.10;96935.00;;;;5058902;28;20211;-91
2022/07/05 12:37:10;;;;;;;1.47;1.10;;;27.60;90.10;29.90;96862.00;;;;5079478;23;20244;-64
2022/07/05 12:40:06;;;;;;;2.83;0.60;;;27.60;90.30;30.40;96856.00;;;;5085527;28;20212;-64
2022/07/05 12:43:04;;;;;;;1.57;1.00;;;27.90;90.20;31.50;96865.00;;;;5084903;28;20217;-64
2022/07/05 12:46:03;;;;;;;0.70;0.60;;;28.30;90.50;32.40;96870.00;;;;5079399;28;20221;-64
2022/07/05 12:48:55;;;;;;;0.73;0.73;;;28.80;91.30;31.70;96855.00;;;;5090115;28;20200;-65
2022/07/05 12:51:45;;;;;;;0.77;0.77;;;29.20;87.10;31.20;96946.00;;;;5084645;28;20614;-64
2022/07/05 12:58:05;;;;;;;0.82;0.82;;;29.10;80.60;31.00;96869.00;;;;5087496;28;20221;-63